West Galveston, Texas
Current Conditions -  °F | °C
As of 5:52 PM on Wednesday 22 Oct 2014 (Local Time) from KGLS Reporting Station
Clear Clear  
Wind Chill: 24°   Ceiling: Unl
Heat Index: 24°   Visibility: 10mi
Dew Point: 16°   Wind: 10mph
Humidity: 60%   Direction: 80°E
Pressure: 30.03"   Gusts: NA
Location:  29.2029°N, 94.9576°W
Report Text: KGLS 222252Z 08009KT 10SM CLR 24/16 A3003 RMK AO2 SLP168 T02440161
Loading
Personal Weather Stations






























Interactive Weather Map
Tropical Storm Tracking
New forecast layout! Learn more

10-Day Weather Forecast

Advertisements
Track Severe Weather on mobile